<?xml version="1.0" encoding="UTF-8" standalone="no" ?>
<gpx xmlns="http://www.topografix.com/GPX/1/1" xmlns:xsi="http://www.w3.org/2001/XMLSchema-instance" xsi:schemaLocation="http://www.topografix.com/GPX/1/1 http://www.topografix.com/GPX/1/1/gpx.xsd" version="1.1" creator="VisuGPX - https://www.visugpx.com">
  <metadata>
    <name>rochers d'angennes</name>
    <desc><![CDATA[avf antony
randonnee pedestre: les rochers d'angennes]]></desc>
  </metadata>
  <trk>
    <name><![CDATA[rochers d'angennes_1]]></name>
    <trkseg>
      <trkpt lat="48.67251" lon="1.73791">
        <ele>151</ele>
        <time>2016-12-01T18:24:32+01:00</time>
      </trkpt>
      <trkpt lat="48.67202" lon="1.7379">
        <ele>161</ele>
        <time>2016-12-01T19:38:11+01:00</time>
      </trkpt>
      <trkpt lat="48.67215" lon="1.73697">
        <ele>160</ele>
        <time>2016-12-01T18:24:37+01:00</time>
      </trkpt>
      <trkpt lat="48.67201" lon="1.73615">
        <ele>161</ele>
        <time>2016-12-01T18:24:42+01:00</time>
      </trkpt>
      <trkpt lat="48.67183" lon="1.7354">
        <ele>160</ele>
        <time>2016-12-01T18:24:47+01:00</time>
      </trkpt>
      <trkpt lat="48.67148" lon="1.73512">
        <ele>163</ele>
        <time>2016-12-01T18:24:52+01:00</time>
      </trkpt>
      <trkpt lat="48.67133" lon="1.73476">
        <ele>161</ele>
        <time>2016-12-01T19:38:36+01:00</time>
      </trkpt>
      <trkpt lat="48.67128" lon="1.7345">
        <ele>159</ele>
        <time>2016-12-01T18:24:57+01:00</time>
      </trkpt>
      <trkpt lat="48.67112" lon="1.73435">
        <ele>159</ele>
        <time>2016-12-01T19:38:46+01:00</time>
      </trkpt>
      <trkpt lat="48.67097" lon="1.73428">
        <ele>160</ele>
        <time>2016-12-01T18:25:02+01:00</time>
      </trkpt>
      <trkpt lat="48.67081" lon="1.73425">
        <ele>161</ele>
        <time>2016-12-01T19:38:56+01:00</time>
      </trkpt>
      <trkpt lat="48.67065" lon="1.73439">
        <ele>161</ele>
        <time>2016-12-01T18:25:07+01:00</time>
      </trkpt>
      <trkpt lat="48.67046" lon="1.73469">
        <ele>163</ele>
        <time>2016-12-01T18:25:12+01:00</time>
      </trkpt>
      <trkpt lat="48.6704" lon="1.73503">
        <ele>166</ele>
        <time>2016-12-01T18:25:17+01:00</time>
      </trkpt>
      <trkpt lat="48.67024" lon="1.73498">
        <ele>165</ele>
        <time>2016-12-01T19:39:16+01:00</time>
      </trkpt>
      <trkpt lat="48.66805" lon="1.73758">
        <ele>172</ele>
        <time>2016-12-01T18:25:22+01:00</time>
      </trkpt>
      <trkpt lat="48.66804" lon="1.73767">
        <ele>173</ele>
        <time>2016-12-01T19:39:26+01:00</time>
      </trkpt>
      <trkpt lat="48.66792" lon="1.73774">
        <ele>173</ele>
        <time>2016-12-01T19:39:31+01:00</time>
      </trkpt>
      <trkpt lat="48.66703" lon="1.73721">
        <ele>170</ele>
        <time>2016-12-01T19:39:36+01:00</time>
      </trkpt>
      <trkpt lat="48.66692" lon="1.73711">
        <ele>169</ele>
        <time>2016-12-01T19:39:41+01:00</time>
      </trkpt>
      <trkpt lat="48.66684" lon="1.73693">
        <ele>167</ele>
        <time>2016-12-01T18:25:27+01:00</time>
      </trkpt>
      <trkpt lat="48.66659" lon="1.73606">
        <ele>160</ele>
        <time>2016-12-01T19:39:51+01:00</time>
      </trkpt>
      <trkpt lat="48.66652" lon="1.73591">
        <ele>158</ele>
        <time>2016-12-01T18:25:32+01:00</time>
      </trkpt>
      <trkpt lat="48.66643" lon="1.73586">
        <ele>156</ele>
        <time>2016-12-01T19:40:01+01:00</time>
      </trkpt>
      <trkpt lat="48.66615" lon="1.73598">
        <ele>152</ele>
        <time>2016-12-01T19:40:06+01:00</time>
      </trkpt>
      <trkpt lat="48.66607" lon="1.73592">
        <ele>150</ele>
        <time>2016-12-01T19:40:11+01:00</time>
      </trkpt>
      <trkpt lat="48.66602" lon="1.73582">
        <ele>148</ele>
        <time>2016-12-01T18:25:37+01:00</time>
      </trkpt>
      <trkpt lat="48.66578" lon="1.73516">
        <ele>145</ele>
        <time>2016-12-01T18:25:42+01:00</time>
      </trkpt>
      <trkpt lat="48.66516" lon="1.73327">
        <ele>149</ele>
        <time>2016-12-01T19:40:26+01:00</time>
      </trkpt>
      <trkpt lat="48.66426" lon="1.73062">
        <ele>157</ele>
        <time>2016-12-01T18:25:47+01:00</time>
      </trkpt>
      <trkpt lat="48.66366" lon="1.72895">
        <ele>154</ele>
        <time>2016-12-01T19:40:36+01:00</time>
      </trkpt>
      <trkpt lat="48.6631" lon="1.72721">
        <ele>158</ele>
        <time>2016-12-01T18:25:52+01:00</time>
      </trkpt>
      <trkpt lat="48.66235" lon="1.72504">
        <ele>156</ele>
        <time>2016-12-01T18:25:57+01:00</time>
      </trkpt>
      <trkpt lat="48.66224" lon="1.72466">
        <ele>154</ele>
        <time>2016-12-01T19:40:51+01:00</time>
      </trkpt>
      <trkpt lat="48.6621" lon="1.72397">
        <ele>150</ele>
        <time>2016-12-01T18:26:02+01:00</time>
      </trkpt>
      <trkpt lat="48.66189" lon="1.72173">
        <ele>144</ele>
        <time>2016-12-01T19:41:01+01:00</time>
      </trkpt>
      <trkpt lat="48.66175" lon="1.72041">
        <ele>144</ele>
        <time>2016-12-01T19:41:06+01:00</time>
      </trkpt>
      <trkpt lat="48.66159" lon="1.71923">
        <ele>145</ele>
        <time>2016-12-01T18:26:07+01:00</time>
      </trkpt>
      <trkpt lat="48.66274" lon="1.71867">
        <ele>141</ele>
        <time>2016-12-01T19:41:16+01:00</time>
      </trkpt>
      <trkpt lat="48.66638" lon="1.71702">
        <ele>141</ele>
        <time>2016-12-01T18:26:12+01:00</time>
      </trkpt>
      <trkpt lat="48.6682" lon="1.71622">
        <ele>152</ele>
        <time>2016-12-01T18:26:17+01:00</time>
      </trkpt>
      <trkpt lat="48.66952" lon="1.71543">
        <ele>150</ele>
        <time>2016-12-01T19:41:31+01:00</time>
      </trkpt>
      <trkpt lat="48.67139" lon="1.71423">
        <ele>160</ele>
        <time>2016-12-01T18:26:22+01:00</time>
      </trkpt>
      <trkpt lat="48.67354" lon="1.71706">
        <ele>167</ele>
        <time>2016-12-01T19:41:41+01:00</time>
      </trkpt>
      <trkpt lat="48.67514" lon="1.71905">
        <ele>159</ele>
        <time>2016-12-01T18:26:27+01:00</time>
      </trkpt>
      <trkpt lat="48.67515" lon="1.71944">
        <ele>160</ele>
        <time>2016-12-01T19:41:51+01:00</time>
      </trkpt>
      <trkpt lat="48.67543" lon="1.72114">
        <ele>162</ele>
        <time>2016-12-01T18:26:32+01:00</time>
      </trkpt>
      <trkpt lat="48.67509" lon="1.72155">
        <ele>161</ele>
        <time>2016-12-01T19:42:01+01:00</time>
      </trkpt>
      <trkpt lat="48.67487" lon="1.72193">
        <ele>160</ele>
        <time>2016-12-01T19:42:06+01:00</time>
      </trkpt>
      <trkpt lat="48.67458" lon="1.72234">
        <ele>158</ele>
        <time>2016-12-01T18:26:37+01:00</time>
      </trkpt>
      <trkpt lat="48.67457" lon="1.72334">
        <ele>158</ele>
        <time>2016-12-01T18:26:42+01:00</time>
      </trkpt>
      <trkpt lat="48.67434" lon="1.72408">
        <ele>158</ele>
        <time>2016-12-01T18:26:47+01:00</time>
      </trkpt>
      <trkpt lat="48.67416" lon="1.72431">
        <ele>157</ele>
        <time>2016-12-01T19:42:26+01:00</time>
      </trkpt>
      <trkpt lat="48.67396" lon="1.72441">
        <ele>156</ele>
        <time>2016-12-01T18:26:52+01:00</time>
      </trkpt>
      <trkpt lat="48.67335" lon="1.7264">
        <ele>156</ele>
        <time>2016-12-01T19:42:36+01:00</time>
      </trkpt>
      <trkpt lat="48.67277" lon="1.72839">
        <ele>153</ele>
        <time>2016-12-01T18:26:57+01:00</time>
      </trkpt>
      <trkpt lat="48.67232" lon="1.72864">
        <ele>152</ele>
        <time>2016-12-01T19:42:46+01:00</time>
      </trkpt>
      <trkpt lat="48.6712" lon="1.72908">
        <ele>151</ele>
        <time>2016-12-01T18:27:02+01:00</time>
      </trkpt>
      <trkpt lat="48.67158" lon="1.72948">
        <ele>153</ele>
        <time>2016-12-01T19:42:56+01:00</time>
      </trkpt>
      <trkpt lat="48.67171" lon="1.72967">
        <ele>155</ele>
        <time>2016-12-01T18:27:07+01:00</time>
      </trkpt>
      <trkpt lat="48.67178" lon="1.73039">
        <ele>159</ele>
        <time>2016-12-01T18:27:12+01:00</time>
      </trkpt>
      <trkpt lat="48.67211" lon="1.73094">
        <ele>163</ele>
        <time>2016-12-01T19:43:11+01:00</time>
      </trkpt>
      <trkpt lat="48.67248" lon="1.7314">
        <ele>164</ele>
        <time>2016-12-01T18:27:17+01:00</time>
      </trkpt>
      <trkpt lat="48.67282" lon="1.73153">
        <ele>165</ele>
        <time>2016-12-01T18:27:22+01:00</time>
      </trkpt>
      <trkpt lat="48.67327" lon="1.73125">
        <ele>169</ele>
        <time>2016-12-01T18:27:27+01:00</time>
      </trkpt>
      <trkpt lat="48.67339" lon="1.73103">
        <ele>169</ele>
        <time>2016-12-01T19:43:31+01:00</time>
      </trkpt>
      <trkpt lat="48.67471" lon="1.72946">
        <ele>170</ele>
        <time>2016-12-01T19:43:36+01:00</time>
      </trkpt>
      <trkpt lat="48.6764" lon="1.72753">
        <ele>177</ele>
        <time>2016-12-01T18:27:32+01:00</time>
      </trkpt>
      <trkpt lat="48.67668" lon="1.72723">
        <ele>176</ele>
        <time>2016-12-01T19:43:46+01:00</time>
      </trkpt>
      <trkpt lat="48.68129" lon="1.72344">
        <ele>179</ele>
        <time>2016-12-01T18:27:37+01:00</time>
      </trkpt>
      <trkpt lat="48.68451" lon="1.7181">
        <ele>179</ele>
        <time>2016-12-01T19:43:56+01:00</time>
      </trkpt>
      <trkpt lat="48.6878" lon="1.7127">
        <ele>178</ele>
        <time>2016-12-01T18:27:42+01:00</time>
      </trkpt>
      <trkpt lat="48.68989" lon="1.71623">
        <ele>169</ele>
        <time>2016-12-01T18:27:47+01:00</time>
      </trkpt>
      <trkpt lat="48.69063" lon="1.71808">
        <ele>167</ele>
        <time>2016-12-01T18:27:52+01:00</time>
      </trkpt>
      <trkpt lat="48.69132" lon="1.7203">
        <ele>169</ele>
        <time>2016-12-01T18:27:57+01:00</time>
      </trkpt>
      <trkpt lat="48.69237" lon="1.72177">
        <ele>168</ele>
        <time>2016-12-01T19:44:21+01:00</time>
      </trkpt>
      <trkpt lat="48.69288" lon="1.72242">
        <ele>165</ele>
        <time>2016-12-01T18:28:02+01:00</time>
      </trkpt>
      <trkpt lat="48.69488" lon="1.72652">
        <ele>164</ele>
        <time>2016-12-01T18:28:07+01:00</time>
      </trkpt>
      <trkpt lat="48.69507" lon="1.72674">
        <ele>164</ele>
        <time>2016-12-01T18:28:12+01:00</time>
      </trkpt>
      <trkpt lat="48.69518" lon="1.72685">
        <ele>165</ele>
        <time>2016-12-01T18:28:17+01:00</time>
      </trkpt>
      <trkpt lat="48.69541" lon="1.72675">
        <ele>167</ele>
        <time>2016-12-01T18:28:22+01:00</time>
      </trkpt>
      <trkpt lat="48.69548" lon="1.727">
        <ele>167</ele>
        <time>2016-12-01T18:28:27+01:00</time>
      </trkpt>
      <trkpt lat="48.69548" lon="1.727">
        <ele>167</ele>
        <time>2016-12-01T18:28:32+01:00</time>
      </trkpt>
      <trkpt lat="48.69549" lon="1.72702">
        <ele>167</ele>
        <time>2016-12-01T18:28:37+01:00</time>
      </trkpt>
      <trkpt lat="48.69622" lon="1.72697">
        <ele>169</ele>
        <time>2016-12-01T18:28:42+01:00</time>
      </trkpt>
      <trkpt lat="48.69631" lon="1.72714">
        <ele>169</ele>
        <time>2016-12-01T18:28:47+01:00</time>
      </trkpt>
      <trkpt lat="48.6965" lon="1.72715">
        <ele>169</ele>
        <time>2016-12-01T18:28:52+01:00</time>
      </trkpt>
      <trkpt lat="48.6966" lon="1.72733">
        <ele>168</ele>
        <time>2016-12-01T18:28:57+01:00</time>
      </trkpt>
      <trkpt lat="48.69679" lon="1.72795">
        <ele>167</ele>
        <time>2016-12-01T18:29:02+01:00</time>
      </trkpt>
      <trkpt lat="48.69703" lon="1.72818">
        <ele>167</ele>
        <time>2016-12-01T18:29:07+01:00</time>
      </trkpt>
      <trkpt lat="48.6977" lon="1.72853">
        <ele>169</ele>
        <time>2016-12-01T18:29:12+01:00</time>
      </trkpt>
      <trkpt lat="48.69822" lon="1.73003">
        <ele>172</ele>
        <time>2016-12-01T18:29:17+01:00</time>
      </trkpt>
      <trkpt lat="48.69832" lon="1.731">
        <ele>175</ele>
        <time>2016-12-01T18:29:22+01:00</time>
      </trkpt>
      <trkpt lat="48.69842" lon="1.73135">
        <ele>175</ele>
        <time>2016-12-01T19:45:51+01:00</time>
      </trkpt>
      <trkpt lat="48.69836" lon="1.73171">
        <ele>175</ele>
        <time>2016-12-01T18:29:27+01:00</time>
      </trkpt>
      <trkpt lat="48.69839" lon="1.73212">
        <ele>175</ele>
        <time>2016-12-01T18:29:32+01:00</time>
      </trkpt>
      <trkpt lat="48.69874" lon="1.73296">
        <ele>176</ele>
        <time>2016-12-01T18:29:37+01:00</time>
      </trkpt>
      <trkpt lat="48.69871" lon="1.73385">
        <ele>178</ele>
        <time>2016-12-01T18:29:42+01:00</time>
      </trkpt>
      <trkpt lat="48.69885" lon="1.73434">
        <ele>179</ele>
        <time>2016-12-01T18:29:47+01:00</time>
      </trkpt>
      <trkpt lat="48.69767" lon="1.73677">
        <ele>179</ele>
        <time>2016-12-01T19:46:21+01:00</time>
      </trkpt>
      <trkpt lat="48.69841" lon="1.73982">
        <ele>172</ele>
        <time>2016-12-01T18:29:52+01:00</time>
      </trkpt>
      <trkpt lat="48.69742" lon="1.74048">
        <ele>172</ele>
        <time>2016-12-01T18:29:57+01:00</time>
      </trkpt>
      <trkpt lat="48.69843" lon="1.73981">
        <ele>172</ele>
        <time>2016-12-01T19:46:36+01:00</time>
      </trkpt>
      <trkpt lat="48.69901" lon="1.74228">
        <ele>168</ele>
        <time>2016-12-01T19:46:41+01:00</time>
      </trkpt>
      <trkpt lat="48.69814" lon="1.7425">
        <ele>167</ele>
        <time>2016-12-01T18:30:02+01:00</time>
      </trkpt>
      <trkpt lat="48.69896" lon="1.74228">
        <ele>168</ele>
        <time>2016-12-01T18:30:07+01:00</time>
      </trkpt>
      <trkpt lat="48.69888" lon="1.74171">
        <ele>168</ele>
        <time>2016-12-01T18:30:12+01:00</time>
      </trkpt>
      <trkpt lat="48.70172" lon="1.74052">
        <ele>179</ele>
        <time>2016-12-01T18:30:17+01:00</time>
      </trkpt>
      <trkpt lat="48.70304" lon="1.73996">
        <ele>180</ele>
        <time>2016-12-01T19:47:06+01:00</time>
      </trkpt>
      <trkpt lat="48.70249" lon="1.7391">
        <ele>178</ele>
        <time>2016-12-01T18:30:22+01:00</time>
      </trkpt>
      <trkpt lat="48.70184" lon="1.73994">
        <ele>179</ele>
        <time>2016-12-01T18:30:27+01:00</time>
      </trkpt>
      <trkpt lat="48.70171" lon="1.7405">
        <ele>179</ele>
        <time>2016-12-01T18:30:32+01:00</time>
      </trkpt>
      <trkpt lat="48.70254" lon="1.74416">
        <ele>175</ele>
        <time>2016-12-01T19:47:26+01:00</time>
      </trkpt>
      <trkpt lat="48.70275" lon="1.7444">
        <ele>174</ele>
        <time>2016-12-01T19:47:31+01:00</time>
      </trkpt>
      <trkpt lat="48.70273" lon="1.74484">
        <ele>173</ele>
        <time>2016-12-01T19:47:36+01:00</time>
      </trkpt>
      <trkpt lat="48.7031" lon="1.74649">
        <ele>169</ele>
        <time>2016-12-01T18:30:37+01:00</time>
      </trkpt>
      <trkpt lat="48.70284" lon="1.74664">
        <ele>168</ele>
        <time>2016-12-01T18:30:42+01:00</time>
      </trkpt>
      <trkpt lat="48.70195" lon="1.75246">
        <ele>177</ele>
        <time>2016-12-01T18:30:47+01:00</time>
      </trkpt>
      <trkpt lat="48.70163" lon="1.75265">
        <ele>176</ele>
        <time>2016-12-01T18:30:52+01:00</time>
      </trkpt>
      <trkpt lat="48.69817" lon="1.75423">
        <ele>169</ele>
        <time>2016-12-01T19:48:01+01:00</time>
      </trkpt>
      <trkpt lat="48.69657" lon="1.75234">
        <ele>163</ele>
        <time>2016-12-01T18:30:57+01:00</time>
      </trkpt>
      <trkpt lat="48.69636" lon="1.75129">
        <ele>162</ele>
        <time>2016-12-01T19:48:11+01:00</time>
      </trkpt>
      <trkpt lat="48.69581" lon="1.74988">
        <ele>159</ele>
        <time>2016-12-01T18:31:02+01:00</time>
      </trkpt>
      <trkpt lat="48.69438" lon="1.75061">
        <ele>168</ele>
        <time>2016-12-01T19:48:21+01:00</time>
      </trkpt>
      <trkpt lat="48.69313" lon="1.74573">
        <ele>168</ele>
        <time>2016-12-01T18:31:07+01:00</time>
      </trkpt>
      <trkpt lat="48.69026" lon="1.74277">
        <ele>164</ele>
        <time>2016-12-01T18:31:12+01:00</time>
      </trkpt>
      <trkpt lat="48.68793" lon="1.74052">
        <ele>161</ele>
        <time>2016-12-01T18:31:17+01:00</time>
      </trkpt>
      <trkpt lat="48.6871" lon="1.74176">
        <ele>156</ele>
        <time>2016-12-01T18:31:22+01:00</time>
      </trkpt>
      <trkpt lat="48.68701" lon="1.742">
        <ele>157</ele>
        <time>2016-12-01T18:31:27+01:00</time>
      </trkpt>
      <trkpt lat="48.68702" lon="1.74225">
        <ele>157</ele>
        <time>2016-12-01T18:31:32+01:00</time>
      </trkpt>
      <trkpt lat="48.68693" lon="1.74242">
        <ele>157</ele>
        <time>2016-12-01T18:31:37+01:00</time>
      </trkpt>
      <trkpt lat="48.68669" lon="1.74292">
        <ele>158</ele>
        <time>2016-12-01T19:49:01+01:00</time>
      </trkpt>
      <trkpt lat="48.68562" lon="1.74464">
        <ele>158</ele>
        <time>2016-12-01T19:49:06+01:00</time>
      </trkpt>
      <trkpt lat="48.68431" lon="1.74597">
        <ele>156</ele>
        <time>2016-12-01T19:49:11+01:00</time>
      </trkpt>
      <trkpt lat="48.68397" lon="1.74601">
        <ele>155</ele>
        <time>2016-12-01T19:49:16+01:00</time>
      </trkpt>
      <trkpt lat="48.68304" lon="1.74518">
        <ele>160</ele>
        <time>2016-12-01T19:49:21+01:00</time>
      </trkpt>
      <trkpt lat="48.68211" lon="1.73958">
        <ele>166</ele>
        <time>2016-12-01T19:49:26+01:00</time>
      </trkpt>
      <trkpt lat="48.67867" lon="1.73463">
        <ele>179</ele>
        <time>2016-12-01T19:49:31+01:00</time>
      </trkpt>
      <trkpt lat="48.67748" lon="1.73446">
        <ele>182</ele>
        <time>2016-12-01T19:49:36+01:00</time>
      </trkpt>
      <trkpt lat="48.67734" lon="1.73346">
        <ele>178</ele>
        <time>2016-12-01T19:49:41+01:00</time>
      </trkpt>
      <trkpt lat="48.67576" lon="1.73316">
        <ele>172</ele>
        <time>2016-12-01T19:49:46+01:00</time>
      </trkpt>
      <trkpt lat="48.67493" lon="1.73233">
        <ele>169</ele>
        <time>2016-12-01T19:49:51+01:00</time>
      </trkpt>
      <trkpt lat="48.6742" lon="1.7338">
        <ele>171</ele>
        <time>2016-12-01T19:49:56+01:00</time>
      </trkpt>
      <trkpt lat="48.6737" lon="1.73404">
        <ele>165</ele>
        <time>2016-12-01T19:50:01+01:00</time>
      </trkpt>
      <trkpt lat="48.67368" lon="1.7349">
        <ele>163</ele>
        <time>2016-12-01T19:50:06+01:00</time>
      </trkpt>
      <trkpt lat="48.67354" lon="1.7356">
        <ele>155</ele>
        <time>2016-12-01T19:50:11+01:00</time>
      </trkpt>
      <trkpt lat="48.67333" lon="1.73592">
        <ele>150</ele>
        <time>2016-12-01T19:50:16+01:00</time>
      </trkpt>
      <trkpt lat="48.6733" lon="1.73633">
        <ele>148</ele>
        <time>2016-12-01T19:50:21+01:00</time>
      </trkpt>
      <trkpt lat="48.67278" lon="1.73832">
        <ele>149</ele>
        <time>2016-12-01T19:50:26+01:00</time>
      </trkpt>
      <trkpt lat="48.67255" lon="1.73797">
        <ele>151</ele>
        <time>2016-12-01T18:31:42+01:00</time>
      </trkpt>
    </trkseg>
  </trk>
</gpx>